Bonnard, Canada
Current Conditions -  °F | °C
As of 9:00 PM on Thursday 18 Dec 2014 (Local Time) from CYRJ Reporting Station
Broken Clouds Broken Clouds  
Wind Chill: -14°   Ceiling: 4000
Heat Index: -8°   Visibility: 25mi
Dew Point: -10°   Wind: 9mph
Humidity: 86%   Direction: 300°WNW
Pressure: 29.9"   Gusts: NA
Location:  50.73°N, 71.02°W
Report Text: CYRJ 190200Z 30008KT 25SM BKN040 M08/M10 A2990 RMK SC6 SLP138
Loading
Personal Weather Stations






























Interactive Weather Map New forecast layout! Learn more

10-Day Weather Forecast

Advertisements
Track Severe Weather on mobile